Terminal Aerodrome Forecast
Issued by NWS Cleveland, OH

Home | Current Version | Previous Version | Text Only | Print | Product List | Glossary On
Versions: 1 2 3 4 5 6 7 8 9 10 11 12 13
000
FTUS41 KCLE 112300
TAFTOL
TAF
KTOL 112329Z 1200/1224 20003KT P6SM BKN120
     FM120200 20003KT P6SM VCSH BKN120
     FM120500 VRB02KT P6SM SCT250
     FM121500 22008KT P6SM SCT045 BKN250
     FM122000 22010KT P6SM VCSH BKN045 PROB30 1222/1224 5SM TSRA BR
      BKN045CB=

USA.gov is the U.S. government's official web portal to all federal, state and local government web resources and services.